createdAt,value
2018-12-26T00:01:34.216Z,36.47
2018-12-26T00:04:02.763Z,34.47
2018-12-26T00:06:31.192Z,36.20
2018-12-26T00:08:59.660Z,37.07
2018-12-26T00:11:28.103Z,30.83
2018-12-26T00:13:56.555Z,42.00
2018-12-26T00:16:25.010Z,40.30
2018-12-26T00:18:53.440Z,31.53
2018-12-26T00:21:21.868Z,29.40
2018-12-26T00:23:50.348Z,30.20
2018-12-26T00:26:19.016Z,30.37
2018-12-26T00:28:47.439Z,30.47
2018-12-26T00:31:15.888Z,36.97
2018-12-26T00:33:44.311Z,37.33
2018-12-26T00:36:12.777Z,33.37
2018-12-26T00:38:41.215Z,35.33
2018-12-26T00:41:09.668Z,40.33
2018-12-26T00:43:38.235Z,26.00
2018-12-26T00:46:06.705Z,32.97
2018-12-26T00:48:35.238Z,34.07
2018-12-26T00:51:03.706Z,34.87
2018-12-26T00:53:32.205Z,37.97
2018-12-26T00:56:00.648Z,35.10
2018-12-26T00:58:29.074Z,33.47
2018-12-26T01:00:57.523Z,30.43
2018-12-26T01:03:25.952Z,39.63
2018-12-26T01:05:54.399Z,35.07
2018-12-26T01:08:22.823Z,32.83
2018-12-26T01:10:51.252Z,34.67
2018-12-26T01:13:19.694Z,38.83
2018-12-26T01:15:48.120Z,30.67
2018-12-26T01:18:16.568Z,29.07
2018-12-26T01:20:44.995Z,33.87
2018-12-26T01:23:13.441Z,30.53
2018-12-26T01:25:41.876Z,35.70
2018-12-26T01:28:10.497Z,32.13
2018-12-26T01:30:38.939Z,33.90
2018-12-26T01:33:08.564Z,37.73
2018-12-26T01:35:37.002Z,32.67
2018-12-26T01:38:05.457Z,31.70
2018-12-26T01:40:33.892Z,33.57
2018-12-26T01:43:02.336Z,33.33
2018-12-26T01:45:30.766Z,32.30
2018-12-26T01:47:59.605Z,35.00
2018-12-26T01:50:28.244Z,28.83
2018-12-26T01:52:56.727Z,28.00
2018-12-26T01:55:25.172Z,31.50
2018-12-26T01:57:53.620Z,26.33
2018-12-26T02:00:22.059Z,25.10
2018-12-26T02:02:50.498Z,28.03
2018-12-26T02:05:19.013Z,31.87
2018-12-26T02:07:47.463Z,29.13
2018-12-26T02:10:15.908Z,29.27
2018-12-26T02:12:44.353Z,27.50
2018-12-26T02:15:12.824Z,28.47
2018-12-26T02:17:41.261Z,25.37
2018-12-26T02:20:09.793Z,29.07
2018-12-26T02:22:38.232Z,25.07
2018-12-26T02:25:07.031Z,32.77
2018-12-26T02:27:35.456Z,25.80
2018-12-26T02:30:04.681Z,30.03
2018-12-26T02:32:33.113Z,29.70
2018-12-26T02:35:01.539Z,28.87
2018-12-26T02:37:29.988Z,29.97
2018-12-26T02:39:58.419Z,34.27
2018-12-26T02:42:26.852Z,28.80
2018-12-26T02:44:55.473Z,33.93
2018-12-26T02:47:23.899Z,32.63
2018-12-26T02:49:52.400Z,34.00
2018-12-26T02:52:20.856Z,28.97
2018-12-26T02:54:49.317Z,30.13
2018-12-26T02:57:17.820Z,28.80
2018-12-26T02:59:46.273Z,28.40
2018-12-26T03:02:14.716Z,30.27
2018-12-26T03:04:43.181Z,30.87
2018-12-26T03:07:11.692Z,26.20
2018-12-26T03:09:40.202Z,26.57
2018-12-26T03:12:08.802Z,29.60
2018-12-26T03:14:37.305Z,27.83
2018-12-26T03:17:05.747Z,27.73
2018-12-26T03:19:34.192Z,38.70
2018-12-26T03:22:02.628Z,31.17
2018-12-26T03:24:31.049Z,33.80
2018-12-26T03:26:59.558Z,27.93
2018-12-26T03:29:27.983Z,22.63
2018-12-26T03:31:56.409Z,29.20
2018-12-26T03:34:24.927Z,30.07
2018-12-26T03:36:53.428Z,29.63
2018-12-26T03:39:21.875Z,34.47
2018-12-26T03:41:50.303Z,34.33
2018-12-26T03:44:18.795Z,32.40
2018-12-26T03:46:47.322Z,37.20
2018-12-26T03:49:15.748Z,26.07
2018-12-26T03:51:44.180Z,31.57
2018-12-26T03:54:12.771Z,27.40
2018-12-26T03:56:41.215Z,28.77
2018-12-26T03:59:09.776Z,27.30
2018-12-26T04:01:38.225Z,28.93
2018-12-26T04:04:06.663Z,31.37
2018-12-26T04:06:35.378Z,28.20
2018-12-26T04:09:05.847Z,24.33
2018-12-26T04:11:34.275Z,24.07
2018-12-26T04:14:02.942Z,27.30
2018-12-26T04:16:31.461Z,23.90
2018-12-26T04:19:00.060Z,27.37
2018-12-26T04:21:28.620Z,26.53
2018-12-26T04:23:57.157Z,24.07
2018-12-26T04:26:25.605Z,28.57
2018-12-26T04:28:54.070Z,32.07
2018-12-26T04:31:22.578Z,32.80
2018-12-26T04:33:51.004Z,30.67
2018-12-26T04:36:19.456Z,25.63
2018-12-26T04:38:47.888Z,23.07
2018-12-26T04:41:16.316Z,28.93
2018-12-26T04:43:44.765Z,26.47
2018-12-26T04:46:13.208Z,28.13
2018-12-26T04:48:41.706Z,24.90
2018-12-26T04:51:10.156Z,25.37
2018-12-26T04:53:39.197Z,23.57
2018-12-26T04:56:07.660Z,24.43
2018-12-26T04:58:36.166Z,24.13
2018-12-26T05:01:04.601Z,27.13
2018-12-26T05:03:33.048Z,26.63
2018-12-26T05:06:01.483Z,38.77
2018-12-26T05:08:29.912Z,29.37
2018-12-26T05:10:58.364Z,27.47
2018-12-26T05:13:27.684Z,26.97
2018-12-26T05:15:56.140Z,22.13
2018-12-26T05:18:24.640Z,25.17
2018-12-26T05:20:53.069Z,26.87
2018-12-26T05:23:21.511Z,24.77
2018-12-26T05:25:50.019Z,25.17
2018-12-26T05:28:18.520Z,25.67
2018-12-26T05:30:46.978Z,24.73
2018-12-26T05:33:15.407Z,26.73
2018-12-26T05:35:43.867Z,25.93
2018-12-26T05:38:12.298Z,28.87
2018-12-26T05:40:40.743Z,22.10
2018-12-26T05:43:09.209Z,24.03
2018-12-26T05:45:37.646Z,26.83
2018-12-26T05:48:06.105Z,29.07
2018-12-26T05:50:34.524Z,26.50
2018-12-26T05:53:02.961Z,28.73
2018-12-26T05:55:31.399Z,30.57
2018-12-26T05:57:59.900Z,31.67
2018-12-26T06:00:28.429Z,31.73
2018-12-26T06:02:56.848Z,27.80
2018-12-26T06:05:25.279Z,27.17
2018-12-26T06:07:53.736Z,30.73
2018-12-26T06:10:22.177Z,32.97
2018-12-26T06:12:50.605Z,27.57
2018-12-26T06:15:19.063Z,23.57
2018-12-26T06:17:47.487Z,26.93
2018-12-26T06:20:15.932Z,30.50
2018-12-26T06:22:44.373Z,26.30
2018-12-26T06:25:12.817Z,29.70
2018-12-26T06:27:41.244Z,32.90
2018-12-26T06:30:09.740Z,25.07
2018-12-26T06:32:38.208Z,27.80
2018-12-26T06:35:06.636Z,27.77
2018-12-26T06:37:35.084Z,25.07
2018-12-26T06:40:03.981Z,22.33
2018-12-26T06:42:32.446Z,30.27
2018-12-26T06:45:00.897Z,26.93
2018-12-26T06:47:29.323Z,29.70
2018-12-26T06:49:57.754Z,25.00
2018-12-26T06:52:26.197Z,26.47
2018-12-26T06:54:54.628Z,28.47
2018-12-26T06:57:23.061Z,28.00
2018-12-26T06:59:51.517Z,27.20
2018-12-26T07:02:19.952Z,26.07
2018-12-26T07:04:48.382Z,27.77
2018-12-26T07:07:16.831Z,26.77
2018-12-26T07:09:45.257Z,28.43
2018-12-26T07:12:13.764Z,23.53
2018-12-26T07:14:42.231Z,21.67
2018-12-26T07:17:10.725Z,30.17
2018-12-26T07:19:39.198Z,31.57
2018-12-26T07:22:07.631Z,24.97
2018-12-26T07:24:36.077Z,21.27
2018-12-26T07:27:05.127Z,20.83
2018-12-26T07:29:33.625Z,24.83
2018-12-26T07:32:02.136Z,18.33
2018-12-26T07:34:30.637Z,24.00
2018-12-26T07:36:59.061Z,24.10
2018-12-26T07:39:27.512Z,26.53
2018-12-26T07:41:55.944Z,31.53
2018-12-26T07:44:24.372Z,23.60
2018-12-26T07:46:52.830Z,31.57
2018-12-26T07:49:21.263Z,34.33
2018-12-26T07:51:49.699Z,26.43
2018-12-26T07:54:18.145Z,22.97
2018-12-26T07:56:46.577Z,28.00
2018-12-26T07:59:15.028Z,29.30
2018-12-26T08:01:43.481Z,26.63
2018-12-26T08:04:11.913Z,25.80
2018-12-26T08:06:40.350Z,26.40
2018-12-26T08:09:10.451Z,30.90
2018-12-26T08:11:39.040Z,29.50
2018-12-26T08:14:07.496Z,30.93
2018-12-26T08:16:35.933Z,30.63
2018-12-26T08:19:04.494Z,32.63
2018-12-26T08:21:32.946Z,29.77
2018-12-26T08:24:01.376Z,24.63
2018-12-26T08:26:29.801Z,26.53
2018-12-26T08:28:58.247Z,27.33
2018-12-26T08:31:26.676Z,25.83
2018-12-26T08:33:55.108Z,31.10
2018-12-26T08:36:23.556Z,31.27
2018-12-26T08:38:52.290Z,27.30
2018-12-26T08:41:20.723Z,33.40
2018-12-26T08:43:49.170Z,23.63
2018-12-26T08:46:17.596Z,29.23
2018-12-26T08:48:46.022Z,27.87
2018-12-26T08:51:14.472Z,20.33
2018-12-26T08:53:42.908Z,27.87
2018-12-26T08:56:11.337Z,33.83
2018-12-26T08:58:39.799Z,31.73
2018-12-26T09:01:08.270Z,29.37
2018-12-26T09:03:36.722Z,31.10
2018-12-26T09:06:05.140Z,28.83
2018-12-26T09:08:33.590Z,35.73
2018-12-26T09:11:02.024Z,29.83
2018-12-26T09:13:30.464Z,28.57
2018-12-26T09:15:58.891Z,27.33
2018-12-26T09:18:27.339Z,30.57
2018-12-26T09:20:55.840Z,34.90
2018-12-26T09:23:24.289Z,22.97
2018-12-26T09:25:53.820Z,27.13
2018-12-26T09:28:22.267Z,29.43
2018-12-26T09:30:50.687Z,29.87
2018-12-26T09:33:19.137Z,28.10
2018-12-26T09:35:47.564Z,32.90
2018-12-26T09:38:16.064Z,30.13
2018-12-26T09:40:44.599Z,29.93
2018-12-26T09:43:13.046Z,28.27
2018-12-26T09:45:41.208Z,33.33
2018-12-26T09:48:09.658Z,36.17
2018-12-26T09:50:38.108Z,29.33
2018-12-26T09:53:06.533Z,34.43
2018-12-26T09:55:34.983Z,21.90
2018-12-26T09:58:03.428Z,33.27
2018-12-26T10:00:31.922Z,34.67
2018-12-26T10:03:00.372Z,29.00
2018-12-26T10:05:28.802Z,27.67
2018-12-26T10:07:57.224Z,28.80
2018-12-26T10:10:25.676Z,27.67
2018-12-26T10:12:54.104Z,35.37
2018-12-26T10:15:22.566Z,25.83
2018-12-26T10:17:51.063Z,28.20
2018-12-26T10:20:19.671Z,24.50
2018-12-26T10:22:48.099Z,30.70
2018-12-26T10:25:16.570Z,29.97
2018-12-26T10:27:45.001Z,25.27
2018-12-26T10:30:13.527Z,30.27
2018-12-26T10:32:42.040Z,23.97
2018-12-26T10:35:10.508Z,30.27
2018-12-26T10:37:40.983Z,28.97
2018-12-26T10:40:09.155Z,25.97
2018-12-26T10:42:37.596Z,29.23
2018-12-26T10:45:06.768Z,25.77
2018-12-26T10:47:35.212Z,28.40
2018-12-26T10:50:03.822Z,26.70
2018-12-26T10:52:32.312Z,27.40
2018-12-26T10:55:00.741Z,30.60
2018-12-26T10:57:29.213Z,33.07
2018-12-26T10:59:57.740Z,31.63
2018-12-26T11:02:26.187Z,28.97
2018-12-26T11:04:54.681Z,27.17
2018-12-26T11:07:23.132Z,24.17
2018-12-26T11:09:51.564Z,32.10
2018-12-26T11:12:20.011Z,30.53
2018-12-26T11:14:48.452Z,25.93
2018-12-26T11:17:17.471Z,24.73
2018-12-26T11:19:45.903Z,30.63
2018-12-26T11:22:14.361Z,23.77
2018-12-26T11:24:42.809Z,20.53
2018-12-26T11:27:11.224Z,21.90
2018-12-26T11:29:39.708Z,29.03
2018-12-26T11:32:08.246Z,31.00
2018-12-26T11:34:36.691Z,23.77
2018-12-26T11:37:05.202Z,22.67
2018-12-26T11:39:33.778Z,29.40
2018-12-26T11:42:02.279Z,29.87
2018-12-26T11:44:30.725Z,22.53
2018-12-26T11:46:59.152Z,28.63
2018-12-26T11:49:27.600Z,21.73
2018-12-26T11:51:56.027Z,27.30
2018-12-26T11:54:24.472Z,24.37
2018-12-26T11:56:53.014Z,23.87
2018-12-26T11:59:27.170Z,40.40
2018-12-26T12:01:51.596Z,27.43
2018-12-26T12:04:20.159Z,23.13
2018-12-26T12:06:48.686Z,29.33
2018-12-26T12:09:17.115Z,27.07
2018-12-26T12:11:45.538Z,23.57
2018-12-26T12:14:14.051Z,22.30
2018-12-26T12:16:42.472Z,20.27
2018-12-26T12:19:10.903Z,27.63
2018-12-26T12:21:39.356Z,24.50
2018-12-26T12:24:07.810Z,17.93
2018-12-26T12:26:36.280Z,19.40
2018-12-26T12:29:04.998Z,22.00
2018-12-26T12:31:33.508Z,23.27
2018-12-26T12:34:02.134Z,29.33
2018-12-26T12:36:31.196Z,25.37
2018-12-26T12:39:00.453Z,24.00
2018-12-26T12:41:28.935Z,27.30
2018-12-26T12:43:57.396Z,23.90
2018-12-26T12:46:28.268Z,30.20
2018-12-26T12:48:56.953Z,22.80
2018-12-26T12:51:25.716Z,28.33
2018-12-26T12:53:54.153Z,26.70
2018-12-26T12:56:22.672Z,23.43
2018-12-26T12:58:51.109Z,24.07
2018-12-26T13:01:19.705Z,21.97
2018-12-26T13:03:48.203Z,26.50
2018-12-26T13:06:16.704Z,24.40
2018-12-26T13:08:45.152Z,21.40
2018-12-26T13:11:13.576Z,21.87
2018-12-26T13:13:42.007Z,24.13
2018-12-26T13:16:10.449Z,20.47
2018-12-26T13:18:38.939Z,17.57
2018-12-26T13:21:07.512Z,19.63
2018-12-26T13:23:35.996Z,22.17
2018-12-26T13:26:04.425Z,24.13
2018-12-26T13:28:32.920Z,23.17
2018-12-26T13:31:04.998Z,16.30
2018-12-26T13:33:31.600Z,23.37
2018-12-26T13:36:00.031Z,23.27
2018-12-26T13:38:28.536Z,26.20
2018-12-26T13:40:57.001Z,23.77
2018-12-26T13:43:25.447Z,22.90
2018-12-26T13:45:54.019Z,24.20
2018-12-26T13:48:22.447Z,30.70
2018-12-26T13:50:51.053Z,24.90
2018-12-26T13:53:19.508Z,25.73
2018-12-26T13:55:47.939Z,25.90
2018-12-26T13:58:16.372Z,25.67
2018-12-26T14:00:44.819Z,30.87
2018-12-26T14:03:13.600Z,25.93
2018-12-26T14:05:42.048Z,25.70
2018-12-26T14:08:10.481Z,22.83
2018-12-26T14:10:38.922Z,28.33
2018-12-26T14:13:07.351Z,27.10
2018-12-26T14:15:35.798Z,33.83
2018-12-26T14:18:04.220Z,32.17
2018-12-26T14:20:32.666Z,33.37
2018-12-26T14:23:01.095Z,32.27
2018-12-26T14:25:29.528Z,29.77
2018-12-26T14:27:57.961Z,27.43
2018-12-26T14:30:26.433Z,30.97
2018-12-26T14:32:54.948Z,30.20
2018-12-26T14:35:23.389Z,32.03
2018-12-26T14:37:51.836Z,29.87
2018-12-26T14:40:20.437Z,29.13
2018-12-26T14:42:48.892Z,30.57
2018-12-26T14:45:17.342Z,32.27
2018-12-26T14:47:46.782Z,29.17
2018-12-26T14:50:15.212Z,36.07
2018-12-26T14:52:43.728Z,34.87
2018-12-26T14:55:12.168Z,28.43
2018-12-26T14:57:40.926Z,30.83
2018-12-26T15:00:09.420Z,28.30
2018-12-26T15:02:38.069Z,37.57
2018-12-26T15:05:07.047Z,29.80
2018-12-26T15:07:35.500Z,27.23
2018-12-26T15:10:04.766Z,35.43
2018-12-26T15:12:33.220Z,27.10
2018-12-26T15:15:01.653Z,30.47
2018-12-26T15:17:30.564Z,29.33
2018-12-26T15:19:59.091Z,29.50
2018-12-26T15:22:27.545Z,34.03
2018-12-26T15:24:56.005Z,35.90
2018-12-26T15:27:24.463Z,33.73
2018-12-26T15:29:52.969Z,34.47
2018-12-26T15:32:21.416Z,32.13
2018-12-26T15:34:49.851Z,33.70
2018-12-26T15:37:18.272Z,33.13
2018-12-26T15:39:46.720Z,32.73
2018-12-26T15:42:15.144Z,30.73
2018-12-26T15:44:43.569Z,28.10
2018-12-26T15:47:12.037Z,36.27
2018-12-26T15:49:40.456Z,31.93
2018-12-26T15:52:08.884Z,35.50
2018-12-26T15:54:37.345Z,37.07
2018-12-26T15:57:05.838Z,36.70
2018-12-26T15:59:34.272Z,34.10
2018-12-26T16:02:03.090Z,34.67
2018-12-26T16:04:31.520Z,34.63
2018-12-26T16:06:59.959Z,40.00
2018-12-26T16:09:28.493Z,33.67
2018-12-26T16:11:59.052Z,37.87
2018-12-26T16:14:27.484Z,40.77
2018-12-26T16:16:55.952Z,34.50
2018-12-26T16:19:24.426Z,40.07
2018-12-26T16:21:52.852Z,37.37
2018-12-26T16:24:21.300Z,35.20
2018-12-26T16:26:49.735Z,33.30
2018-12-26T16:29:18.181Z,33.40
2018-12-26T16:31:46.612Z,36.77
2018-12-26T16:34:15.037Z,40.50
2018-12-26T16:36:43.484Z,37.40
2018-12-26T16:39:11.928Z,35.03
2018-12-26T16:41:40.416Z,35.57
2018-12-26T16:44:08.866Z,38.27
2018-12-26T16:46:37.299Z,40.00
2018-12-26T16:49:05.730Z,35.13
2018-12-26T16:51:34.173Z,41.50
2018-12-26T16:54:02.595Z,39.17
2018-12-26T16:56:31.028Z,38.97
2018-12-26T16:58:59.487Z,38.13
2018-12-26T17:01:27.976Z,39.27
2018-12-26T17:03:56.445Z,40.57
2018-12-26T17:06:24.882Z,40.90
2018-12-26T17:08:53.601Z,42.00
2018-12-26T17:11:22.047Z,43.90
2018-12-26T17:13:50.497Z,41.57
2018-12-26T17:16:19.000Z,42.67
2018-12-26T17:18:47.448Z,42.33
2018-12-26T17:21:15.877Z,43.60
2018-12-26T17:23:44.325Z,43.60
2018-12-26T17:26:12.752Z,35.40
2018-12-26T17:28:41.208Z,42.00
2018-12-26T17:31:09.641Z,43.27
2018-12-26T17:33:38.077Z,39.73
2018-12-26T17:36:06.609Z,36.20
2018-12-26T17:38:36.200Z,35.30
2018-12-26T17:41:04.639Z,39.83
2018-12-26T17:43:33.148Z,39.90
2018-12-26T17:46:01.593Z,33.77
2018-12-26T17:48:30.108Z,37.83
2018-12-26T17:50:58.564Z,39.63
2018-12-26T17:53:33.112Z,37.97
2018-12-26T17:56:22.202Z,37.60
2018-12-26T17:58:56.791Z,41.67
2018-12-26T18:01:31.060Z,39.80
2018-12-26T18:03:59.487Z,39.20
2018-12-26T18:06:27.941Z,40.60
2018-12-26T18:08:56.409Z,41.70
2018-12-26T18:11:24.848Z,35.60
2018-12-26T18:13:53.274Z,40.93
2018-12-26T18:16:21.720Z,44.10
2018-12-26T18:18:50.151Z,39.17
2018-12-26T18:21:18.596Z,41.33
2018-12-26T18:23:47.024Z,38.80
2018-12-26T18:26:15.460Z,35.97
2018-12-26T18:28:43.936Z,41.70
2018-12-26T18:31:12.467Z,46.27
2018-12-26T18:33:40.996Z,48.07
2018-12-26T18:36:09.452Z,37.00
2018-12-26T18:38:37.877Z,39.87
2018-12-26T18:41:06.322Z,36.37
2018-12-26T18:43:34.753Z,34.57
2018-12-26T18:46:03.180Z,41.23
2018-12-26T18:48:31.632Z,34.83
2018-12-26T18:51:00.060Z,43.03
2018-12-26T18:53:28.488Z,39.40
2018-12-26T18:55:56.935Z,42.80
2018-12-26T18:58:25.364Z,37.17
2018-12-26T19:00:53.805Z,43.60
2018-12-26T19:03:22.253Z,39.43
2018-12-26T19:05:50.682Z,38.63
2018-12-26T19:08:19.261Z,42.37
2018-12-26T19:10:47.708Z,38.87
2018-12-26T19:13:16.151Z,33.53
2018-12-26T19:15:44.603Z,41.43
2018-12-26T19:18:13.053Z,42.93
2018-12-26T19:20:42.977Z,36.87
2018-12-26T19:23:11.444Z,32.97
2018-12-26T19:25:39.877Z,45.17
2018-12-26T19:28:08.307Z,46.40
2018-12-26T19:30:36.769Z,36.37
2018-12-26T19:33:05.200Z,38.00
2018-12-26T19:35:33.631Z,36.33
2018-12-26T19:38:02.078Z,39.53
2018-12-26T19:40:30.567Z,38.77
2018-12-26T19:42:59.021Z,41.77
2018-12-26T19:45:27.633Z,42.37
2018-12-26T19:47:56.151Z,44.00
2018-12-26T19:50:25.004Z,45.20
2018-12-26T19:52:53.444Z,43.80
2018-12-26T19:55:21.888Z,40.10
2018-12-26T19:57:50.359Z,43.70
2018-12-26T20:00:18.784Z,32.70
2018-12-26T20:02:47.227Z,42.03
2018-12-26T20:05:15.707Z,44.40
2018-12-26T20:07:44.187Z,44.03
2018-12-26T20:10:12.612Z,42.43
2018-12-26T20:12:41.065Z,46.00
2018-12-26T20:15:09.570Z,45.90
2018-12-26T20:17:38.026Z,56.53
2018-12-26T20:20:08.246Z,42.20
2018-12-26T20:22:36.813Z,41.63
2018-12-26T20:25:05.769Z,38.23
2018-12-26T20:27:34.226Z,37.20
2018-12-26T20:30:02.819Z,45.30
2018-12-26T20:32:31.267Z,43.07
2018-12-26T20:34:59.839Z,35.37
2018-12-26T20:37:28.385Z,38.37
2018-12-26T20:39:56.904Z,41.80
2018-12-26T20:42:25.417Z,38.07
2018-12-26T20:44:53.844Z,44.30
2018-12-26T20:47:22.272Z,43.67
2018-12-26T20:49:50.727Z,40.50
2018-12-26T20:52:19.153Z,43.23
2018-12-26T20:54:47.618Z,43.80
2018-12-26T20:57:16.065Z,39.47
2018-12-26T20:59:44.496Z,44.53
2018-12-26T21:02:12.923Z,38.60
2018-12-26T21:04:41.441Z,41.10
2018-12-26T21:07:09.881Z,42.80
2018-12-26T21:09:38.313Z,34.80
2018-12-26T21:12:06.767Z,43.90
2018-12-26T21:14:35.194Z,42.70
2018-12-26T21:17:03.623Z,47.63
2018-12-26T21:19:32.175Z,39.87
2018-12-26T21:22:00.607Z,44.33
2018-12-26T21:24:29.044Z,39.73
2018-12-26T21:26:57.586Z,43.33
2018-12-26T21:29:26.014Z,40.63
2018-12-26T21:31:54.524Z,47.23
2018-12-26T21:34:23.060Z,44.50
2018-12-26T21:36:51.484Z,44.33
2018-12-26T21:39:20.160Z,43.97
2018-12-26T21:41:48.602Z,48.57
2018-12-26T21:44:17.096Z,41.13
2018-12-26T21:46:45.651Z,43.07
2018-12-26T21:49:14.223Z,46.63
2018-12-26T21:51:42.664Z,37.17
2018-12-26T21:54:11.114Z,44.07
2018-12-26T21:56:39.556Z,46.10
2018-12-26T21:59:07.985Z,50.20
2018-12-26T22:01:36.434Z,41.83
2018-12-26T22:04:04.861Z,40.17
2018-12-26T22:06:33.323Z,39.80
2018-12-26T22:09:01.812Z,39.90
2018-12-26T22:11:30.273Z,44.13
2018-12-26T22:13:58.708Z,42.33
2018-12-26T22:16:27.245Z,41.87
2018-12-26T22:18:55.688Z,43.33
2018-12-26T22:21:24.120Z,40.97
2018-12-26T22:23:52.577Z,43.70
2018-12-26T22:26:21.005Z,45.03
2018-12-26T22:28:49.434Z,42.13
2018-12-26T22:31:17.880Z,42.93
2018-12-26T22:33:46.315Z,45.83
2018-12-26T22:36:14.821Z,42.00
2018-12-26T22:38:43.257Z,45.37
2018-12-26T22:41:11.679Z,43.67
2018-12-26T22:43:40.128Z,41.80
2018-12-26T22:46:08.557Z,44.47
2018-12-26T22:48:37.008Z,50.13
2018-12-26T22:51:05.512Z,46.97
2018-12-26T22:53:34.650Z,44.47
2018-12-26T22:56:03.886Z,45.40
2018-12-26T22:58:32.412Z,39.03
2018-12-26T23:01:00.848Z,40.23
2018-12-26T23:03:29.320Z,42.17
2018-12-26T23:05:57.923Z,41.63
2018-12-26T23:08:27.947Z,41.37
2018-12-26T23:10:56.487Z,48.17
2018-12-26T23:13:25.012Z,42.50
2018-12-26T23:15:54.213Z,42.60
2018-12-26T23:18:22.760Z,45.27
2018-12-26T23:20:51.199Z,38.60
2018-12-26T23:23:19.652Z,41.37
2018-12-26T23:25:48.086Z,44.00
2018-12-26T23:28:16.520Z,40.87
2018-12-26T23:30:44.973Z,44.20
2018-12-26T23:33:13.572Z,36.93
2018-12-26T23:35:42.032Z,39.53
2018-12-26T23:38:10.459Z,42.97
2018-12-26T23:40:38.946Z,37.30
2018-12-26T23:43:07.372Z,42.50
2018-12-26T23:45:35.820Z,38.50
2018-12-26T23:48:04.322Z,36.87
2018-12-26T23:50:32.770Z,43.50
2018-12-26T23:53:01.188Z,47.57
2018-12-26T23:55:29.636Z,47.90
2018-12-26T23:57:58.065Z,47.00
